Time;durP1;ratioP1;P1;durP2;ratioP2;P2;SDS_P1;SDS_P2;PMS_P1;PMS_P2;Temp;Humidity;BMP_temperature;BMP_pressure;BME280_temperature;BME280_humidity;BME280_pressure;Samples;Min_cycle;Max_cycle;Signal;HPM_P1;HPM_P2
2021/12/10 00:01:29;;;;;;;45.77;27.97;;;5.00;99.90;;;;;;5014699;28;20129;-77
2021/12/10 00:03:57;;;;;;;41.15;27.52;;;5.00;99.90;;;;;;5026738;28;20452;-77
2021/12/10 00:06:28;;;;;;;43.25;27.25;;;4.90;99.90;;;;;;5031873;28;20044;-77
2021/12/10 00:09:08;;;;;;;45.50;28.15;;;4.90;99.90;;;;;;5014888;28;20053;-77
2021/12/10 00:11:48;;;;;;;48.08;29.27;;;4.90;99.90;;;;;;5032027;28;20064;-76
2021/12/10 00:14:14;;;;;;;54.55;28.30;;;4.80;99.90;;;;;;5032265;28;20104;-77
2021/12/10 00:16:42;;;;;;;46.97;28.75;;;4.80;99.90;;;;;;5014673;28;20049;-76
2021/12/10 00:19:55;;;;;;;49.15;29.00;;;4.80;99.90;;;;;;5032193;28;20128;-76
2021/12/10 00:21:57;;;;;;;42.75;26.30;;;4.80;99.90;;;;;;5024404;28;20505;-76
2021/12/10 00:24:26;;;;;;;43.50;26.48;;;4.80;99.90;;;;;;5031851;28;20559;-77
2021/12/10 00:26:54;;;;;;;42.67;26.85;;;4.90;99.90;;;;;;5034536;28;20042;-77
2021/12/10 00:29:20;;;;;;;46.97;28.13;;;4.90;99.90;;;;;;5035350;28;20507;-77
2021/12/10 00:31:52;;;;;;;44.80;26.45;;;4.90;99.90;;;;;;5035883;28;20129;-77
2021/12/10 00:34:41;;;;;;;45.05;27.88;;;4.90;99.90;;;;;;5035766;28;20045;-78
2021/12/10 00:37:11;;;;;;;42.15;26.27;;;4.90;99.90;;;;;;5035616;28;20041;-77
2021/12/10 00:39:52;;;;;;;44.88;27.48;;;4.90;99.90;;;;;;5001486;28;20103;-77
2021/12/10 00:42:25;;;;;;;43.17;25.50;;;4.90;99.90;;;;;;5035597;28;20046;-77
2021/12/10 00:44:52;;;;;;;45.58;26.42;;;4.90;99.90;;;;;;5035677;28;20052;-76
2021/12/10 00:47:18;;;;;;;50.78;27.80;;;4.90;99.90;;;;;;5035241;28;20042;-77
2021/12/10 00:49:44;;;;;;;46.63;26.70;;;4.90;99.90;;;;;;5017648;28;20052;-77
2021/12/10 00:52:12;;;;;;;52.30;27.93;;;4.80;99.90;;;;;;5035260;28;20046;-77
2021/12/10 00:54:38;;;;;;;50.65;27.13;;;4.90;99.90;;;;;;5034938;28;20045;-77
2021/12/10 00:57:06;;;;;;;46.50;27.67;;;4.90;99.90;;;;;;5035142;28;20046;-76
2021/12/10 00:59:31;;;;;;;47.25;27.65;;;4.90;99.90;;;;;;5034908;28;20054;-77
2021/12/10 01:01:57;;;;;;;45.27;26.70;;;4.90;99.90;;;;;;5035073;28;20375;-76
2021/12/10 01:04:28;;;;;;;43.20;25.87;;;5.00;99.90;;;;;;5017441;28;20115;-76
2021/12/10 01:06:57;;;;;;;42.78;26.05;;;5.00;99.90;;;;;;5035036;28;20076;-77
2021/12/10 01:09:30;;;;;;;39.60;23.33;;;4.90;99.90;;;;;;5034950;28;20056;-76
2021/12/10 01:12:05;;;;;;;43.47;23.15;;;5.00;99.90;;;;;;5034713;28;20053;-77
2021/12/10 01:25:51;;;;;;;45.47;22.70;;;4.90;99.90;;;;;;5034345;28;20111;-76
2021/12/10 01:28:17;;;;;;;41.42;23.30;;;4.90;99.90;;;;;;5034365;28;20489;-76
2021/12/10 01:30:43;;;;;;;42.80;22.83;;;4.80;99.90;;;;;;5034337;28;20072;-77
2021/12/10 01:33:12;;;;;;;41.88;22.60;;;4.80;99.90;;;;;;5034627;28;20053;-77
2021/12/10 01:35:42;;;;;;;37.83;22.48;;;4.80;99.90;;;;;;5034196;28;20081;-77
2021/12/10 01:38:10;;;;;;;47.10;24.27;;;4.80;99.90;;;;;;5034275;28;20513;-77
2021/12/10 01:40:41;;;;;;;38.65;22.13;;;4.80;99.90;;;;;;5034130;28;20049;-77
2021/12/10 01:43:12;;;;;;;38.40;21.35;;;4.80;99.90;;;;;;5034534;28;20378;-76
2021/12/10 01:45:45;;;;;;;34.33;20.85;;;4.80;99.90;;;;;;5033979;28;20049;-77
2021/12/10 01:48:17;;;;;;;37.35;21.60;;;4.80;99.90;;;;;;5034541;28;20419;-77
2021/12/10 01:50:44;;;;;;;35.33;20.27;;;4.80;99.90;;;;;;5033991;28;20050;-77
2021/12/10 01:53:12;;;;;;;36.10;19.60;;;4.70;99.90;;;;;;5034108;28;20473;-77
2021/12/10 01:55:44;;;;;;;29.02;17.73;;;4.90;99.90;;;;;;5033780;28;20124;-77
2021/12/10 01:58:12;;;;;;;32.30;17.13;;;4.90;99.90;;;;;;5034157;28;20442;-77
2021/12/10 02:00:42;;;;;;;31.40;17.58;;;4.90;99.90;;;;;;5016010;28;20045;-77
2021/12/10 02:03:08;;;;;;;31.08;17.65;;;4.80;99.90;;;;;;5033869;28;20049;-76
2021/12/10 02:05:34;;;;;;;35.03;17.97;;;4.80;99.90;;;;;;5016233;28;20049;-77
2021/12/10 02:08:01;;;;;;;41.55;19.13;;;4.80;99.90;;;;;;5034054;28;20121;-77
2021/12/10 02:10:29;;;;;;;34.63;15.95;;;4.80;99.90;;;;;;5033717;28;20061;-76
2021/12/10 02:12:57;;;;;;;30.90;18.08;;;4.80;99.90;;;;;;5033474;28;20191;-77
2021/12/10 02:15:26;;;;;;;34.40;17.77;;;4.80;99.90;;;;;;5033454;28;20489;-77
2021/12/10 02:17:53;;;;;;;35.78;15.75;;;4.90;99.90;;;;;;5015942;28;20901;-77
2021/12/10 02:20:28;;;;;;;29.27;15.50;;;4.90;99.90;;;;;;5033660;28;20041;-76
2021/12/10 02:22:54;;;;;;;27.10;16.15;;;4.90;99.90;;;;;;5015711;28;20099;-77
2021/12/10 02:25:23;;;;;;;32.17;16.23;;;4.90;99.90;;;;;;5033479;28;20052;-77
2021/12/10 02:27:49;;;;;;;29.13;16.77;;;4.90;99.90;;;;;;5033131;28;20121;-77
2021/12/10 02:30:17;;;;;;;28.83;14.45;;;4.90;99.90;;;;;;5033468;28;20104;-77
2021/12/10 02:32:42;;;;;;;24.10;13.82;;;4.90;99.90;;;;;;5033178;28;20087;-76
2021/12/10 02:35:11;;;;;;;25.70;14.83;;;4.90;99.90;;;;;;5033600;28;20088;-77
2021/12/10 02:37:38;;;;;;;26.10;15.30;;;4.90;99.90;;;;;;5033037;28;20084;-76
2021/12/10 02:40:06;;;;;;;27.25;14.80;;;4.90;99.90;;;;;;5033269;28;20096;-76
2021/12/10 02:42:32;;;;;;;30.25;14.43;;;4.90;99.90;;;;;;5033379;28;20049;-77
2021/12/10 02:44:58;;;;;;;27.87;14.30;;;4.90;99.90;;;;;;5032991;28;20123;-77
2021/12/10 02:47:23;;;;;;;25.60;14.43;;;4.90;99.90;;;;;;5033078;28;20128;-76
2021/12/10 02:49:49;;;;;;;28.93;14.13;;;4.90;99.90;;;;;;5032402;28;20129;-77
2021/12/10 02:52:16;;;;;;;26.67;14.20;;;4.90;99.90;;;;;;5033092;28;20045;-76
2021/12/10 02:54:44;;;;;;;25.25;15.20;;;4.90;99.90;;;;;;5032846;28;20366;-76
2021/12/10 02:57:15;;;;;;;26.35;14.60;;;4.90;99.90;;;;;;5033291;28;20046;-76
2021/12/10 02:59:40;;;;;;;25.73;14.88;;;5.00;99.90;;;;;;5032862;28;20119;-76
2021/12/10 03:02:15;;;;;;;30.03;15.33;;;4.80;99.90;;;;;;5032948;28;20045;-77
2021/12/10 03:04:42;;;;;;;28.20;14.45;;;4.90;99.90;;;;;;5015292;28;20085;-76
2021/12/10 03:07:13;;;;;;;27.80;14.48;;;4.90;99.90;;;;;;5015233;28;20493;-77
2021/12/10 03:09:41;;;;;;;30.42;15.00;;;4.90;99.90;;;;;;5032629;28;20049;-76
2021/12/10 03:12:08;;;;;;;24.92;15.70;;;4.90;99.90;;;;;;5032740;28;20060;-76
2021/12/10 03:14:37;;;;;;;25.23;15.85;;;4.90;99.90;;;;;;5032963;28;20049;-76
2021/12/10 03:17:08;;;;;;;28.45;15.52;;;4.90;99.90;;;;;;5015374;28;20072;-76
2021/12/10 03:19:34;;;;;;;25.30;14.85;;;4.90;99.90;;;;;;5032956;28;20160;-76
2021/12/10 03:22:00;;;;;;;23.57;14.47;;;4.80;99.90;;;;;;5015165;28;20159;-76
2021/12/10 03:24:28;;;;;;;32.40;16.58;;;4.80;99.90;;;;;;5032759;28;20180;-76
2021/12/10 03:26:57;;;;;;;27.95;16.27;;;4.80;99.90;;;;;;5014736;28;20516;-76
2021/12/10 03:29:25;;;;;;;30.20;16.95;;;4.70;99.90;;;;;;5032642;28;20056;-76
2021/12/10 03:31:52;;;;;;;21.17;13.95;;;4.70;99.90;;;;;;5032641;28;20150;-76
2021/12/10 03:34:18;;;;;;;26.38;14.80;;;4.70;99.90;;;;;;5015269;28;20050;-76
2021/12/10 03:36:46;;;;;;;32.60;15.57;;;4.70;99.90;;;;;;5014957;28;20501;-76
2021/12/10 03:39:18;;;;;;;24.92;15.30;;;4.60;99.90;;;;;;4998789;28;20369;-76
2021/12/10 03:41:44;;;;;;;27.42;14.38;;;4.70;99.90;;;;;;5032400;28;20089;-76
2021/12/10 03:44:11;;;;;;;24.40;14.55;;;4.70;99.90;;;;;;5032572;28;20042;-76
2021/12/10 03:46:37;;;;;;;27.10;14.57;;;4.60;99.90;;;;;;5032478;28;20124;-76
2021/12/10 03:49:07;;;;;;;26.93;14.17;;;4.60;99.90;;;;;;5014729;28;20144;-76
2021/12/10 03:51:34;;;;;;;31.77;16.10;;;4.60;99.90;;;;;;5032549;28;20534;-76
2021/12/10 03:54:00;;;;;;;22.23;13.00;;;4.60;99.90;;;;;;5014535;28;20470;-76
2021/12/10 03:56:29;;;;;;;22.40;12.37;;;4.60;99.90;;;;;;5032176;28;20045;-76
2021/12/10 03:58:59;;;;;;;22.70;12.63;;;4.60;99.90;;;;;;5032112;28;20120;-76
2021/12/10 04:01:28;;;;;;;25.90;13.10;;;4.60;99.90;;;;;;5034328;28;20067;-75
2021/12/10 04:03:55;;;;;;;22.45;13.68;;;4.50;99.90;;;;;;5018270;28;20493;-76
2021/12/10 04:06:22;;;;;;;24.25;12.60;;;4.50;99.90;;;;;;5036107;28;20049;-76
2021/12/10 04:08:48;;;;;;;23.38;12.63;;;4.50;99.90;;;;;;5018439;28;20057;-76
2021/12/10 04:11:15;;;;;;;23.70;12.82;;;4.50;99.90;;;;;;5018641;28;20057;-76
2021/12/10 04:13:43;;;;;;;25.27;13.65;;;4.40;99.90;;;;;;5036064;28;20053;-76
2021/12/10 04:16:09;;;;;;;22.88;13.05;;;4.40;99.90;;;;;;5018614;28;20050;-76
2021/12/10 04:18:36;;;;;;;22.57;11.97;;;4.40;99.90;;;;;;5036091;28;20049;-77
2021/12/10 04:21:05;;;;;;;22.83;12.50;;;4.40;99.90;;;;;;5018327;28;20049;-76
2021/12/10 04:23:31;;;;;;;21.35;12.75;;;4.40;99.90;;;;;;5035978;28;20057;-77
2021/12/10 04:25:58;;;;;;;24.42;12.60;;;4.50;99.90;;;;;;5035476;28;20071;-76
2021/12/10 04:28:24;;;;;;;21.00;11.98;;;4.40;99.90;;;;;;5035794;28;20175;-77
2021/12/10 04:30:51;;;;;;;22.73;12.50;;;;;;;;;;5035467;28;20128;-76
2021/12/10 04:33:21;;;;;;;23.02;11.98;;;;;;;;;;5035764;28;20061;-76
2021/12/10 04:35:48;;;;;;;24.88;12.95;;;4.30;99.90;;;;;;5035398;28;20053;-76
2021/12/10 04:38:17;;;;;;;22.88;13.05;;;4.60;99.90;;;;;;5035711;28;20049;-76
2021/12/10 04:40:47;;;;;;;25.52;13.88;;;4.40;99.90;;;;;;5035709;28;20079;-76
2021/12/10 04:43:13;;;;;;;21.10;12.60;;;;;;;;;;5035879;28;20045;-76
2021/12/10 04:45:39;;;;;;;22.83;12.68;;;;;;;;;;5035567;28;20139;-76
2021/12/10 04:48:05;;;;;;;26.17;13.05;;;4.00;99.90;;;;;;5035132;28;20481;-76
2021/12/10 04:50:31;;;;;;;20.47;12.13;;;4.00;99.90;;;;;;5017794;28;20052;-76
2021/12/10 04:52:58;;;;;;;22.60;11.40;;;3.90;99.90;;;;;;5034726;28;20119;-76
2021/12/10 04:55:24;;;;;;;24.58;12.18;;;3.90;99.90;;;;;;5035286;28;20088;-76
2021/12/10 04:57:50;;;;;;;21.73;12.40;;;3.90;99.90;;;;;;5034955;28;20041;-76
2021/12/10 05:00:30;;;;;;;22.45;13.68;;;3.80;99.90;;;;;;5035171;28;20124;-76
2021/12/10 05:02:57;;;;;;;22.08;12.93;;;3.70;99.90;;;;;;5035027;28;20407;-76
2021/12/10 05:05:23;;;;;;;21.42;11.48;;;3.80;99.90;;;;;;5035139;28;20056;-76
2021/12/10 05:07:49;;;;;;;17.55;11.43;;;3.70;99.90;;;;;;5035102;28;20087;-76
2021/12/10 05:10:17;;;;;;;22.27;11.73;;;3.70;99.90;;;;;;5035015;28;20080;-76
2021/12/10 05:12:43;;;;;;;24.48;12.48;;;3.70;99.90;;;;;;5034844;28;20049;-76
2021/12/10 05:15:15;;;;;;;20.52;12.35;;;3.60;99.90;;;;;;5034647;28;20095;-76
2021/12/10 05:17:41;;;;;;;21.40;12.50;;;3.60;99.90;;;;;;5035028;28;20124;-76
2021/12/10 05:20:12;;;;;;;20.73;12.13;;;3.60;99.90;;;;;;5034535;28;20045;-76
2021/12/10 05:22:40;;;;;;;20.42;11.43;;;3.60;99.90;;;;;;5034888;28;20041;-76
2021/12/10 05:25:07;;;;;;;20.20;12.90;;;3.60;99.90;;;;;;5034518;28;20076;-76
2021/12/10 05:27:34;;;;;;;20.85;11.80;;;3.50;99.90;;;;;;5034728;28;20260;-76
2021/12/10 05:30:00;;;;;;;25.30;12.75;;;3.50;99.90;;;;;;5034397;28;20413;-76
2021/12/10 05:32:26;;;;;;;17.40;11.27;;;3.50;99.90;;;;;;5034623;28;20128;-76
2021/12/10 05:34:52;;;;;;;19.23;12.47;;;3.40;99.90;;;;;;5016917;28;20268;-76
2021/12/10 05:37:18;;;;;;;24.77;14.30;;;;;;;;;;5034506;28;20037;-76
2021/12/10 05:39:44;;;;;;;23.65;14.10;;;;;;;;;;5034640;28;20045;-76
2021/12/10 05:42:10;;;;;;;22.88;14.25;;;;;;;;;;5034152;28;20045;-76
2021/12/10 05:44:38;;;;;;;21.70;14.23;;;;;;;;;;5034395;28;20055;-76
2021/12/10 05:47:05;;;;;;;24.45;14.80;;;;;;;;;;5034071;28;20053;-76
2021/12/10 05:49:30;;;;;;;23.63;15.93;;;3.30;99.90;;;;;;5034315;28;20508;-75
2021/12/10 05:51:56;;;;;;;21.33;15.47;;;3.30;99.90;;;;;;5033959;28;20117;-76
2021/12/10 05:54:22;;;;;;;23.60;16.70;;;3.30;99.90;;;;;;5016729;28;20049;-76
2021/12/10 05:56:48;;;;;;;25.37;16.30;;;3.30;99.90;;;;;;5016627;28;20346;-76
2021/12/10 05:59:14;;;;;;;27.85;17.40;;;3.30;99.90;;;;;;5033746;28;20130;-76
2021/12/10 06:01:40;;;;;;;28.27;18.43;;;3.20;99.90;;;;;;5034150;28;20433;-76
2021/12/10 06:04:06;;;;;;;27.17;18.40;;;3.30;99.90;;;;;;5033482;28;20049;-76
2021/12/10 06:06:34;;;;;;;26.48;18.45;;;3.30;99.90;;;;;;5034009;28;20092;-75
2021/12/10 06:09:03;;;;;;;26.48;17.70;;;3.20;99.90;;;;;;5033622;28;20140;-76
2021/12/10 06:11:28;;;;;;;29.90;17.83;;;3.30;99.90;;;;;;5033393;28;20057;-76
2021/12/10 06:13:56;;;;;;;23.70;17.10;;;3.20;99.90;;;;;;5033970;28;20045;-75
2021/12/10 06:16:22;;;;;;;28.58;17.80;;;3.20;99.90;;;;;;5033788;28;20099;-76
2021/12/10 06:18:48;;;;;;;28.57;18.47;;;3.20;99.90;;;;;;5033767;28;20430;-76
2021/12/10 06:21:14;;;;;;;30.85;18.63;;;3.30;99.90;;;;;;5033419;28;20049;-76
2021/12/10 06:23:40;;;;;;;28.58;18.33;;;3.20;99.90;;;;;;5032966;28;20049;-76
2021/12/10 06:26:06;;;;;;;28.27;18.70;;;3.20;99.90;;;;;;5033074;28;20037;-76
2021/12/10 06:28:34;;;;;;;25.83;18.20;;;3.20;99.90;;;;;;5016253;28;20056;-76
2021/12/10 06:31:00;;;;;;;29.85;18.42;;;3.20;99.90;;;;;;5015885;28;20284;-76
2021/12/10 06:33:28;;;;;;;27.80;19.15;;;3.20;99.90;;;;;;5033546;28;20443;-76
2021/12/10 06:35:56;;;;;;;27.08;18.20;;;3.20;99.90;;;;;;5033578;28;20053;-76
2021/12/10 06:38:23;;;;;;;27.45;20.58;;;3.10;99.90;;;;;;5015520;28;20192;-76
2021/12/10 06:40:50;;;;;;;29.65;21.10;;;3.10;99.90;;;;;;5033392;28;20100;-76
2021/12/10 06:43:16;;;;;;;31.58;24.30;;;3.10;99.90;;;;;;5033082;28;20050;-76
2021/12/10 06:45:45;;;;;;;33.03;25.47;;;3.00;99.90;;;;;;5033251;28;20067;-76
2021/12/10 06:48:12;;;;;;;25.38;19.95;;;3.10;99.90;;;;;;5033061;28;20124;-76
2021/12/10 06:50:43;;;;;;;28.23;19.42;;;3.10;99.90;;;;;;5033220;28;20046;-76
2021/12/10 06:53:08;;;;;;;28.25;22.50;;;3.00;99.90;;;;;;5033015;28;20076;-76
2021/12/10 06:55:35;;;;;;;29.47;25.93;;;3.00;99.90;;;;;;5033492;28;20486;-76
2021/12/10 06:58:02;;;;;;;28.63;21.95;;;3.00;99.90;;;;;;5032982;28;20045;-75
2021/12/10 07:00:54;;;;;;;26.20;19.40;;;3.00;99.90;;;;;;5033077;28;20049;-76
2021/12/10 07:03:23;;;;;;;29.90;18.77;;;3.00;99.90;;;;;;5032599;28;20509;-76
2021/12/10 07:05:51;;;;;;;24.90;18.70;;;2.90;99.90;;;;;;5033127;28;20053;-76
2021/12/10 07:08:19;;;;;;;25.02;18.35;;;2.90;99.90;;;;;;5032692;28;20181;-76
2021/12/10 07:10:45;;;;;;;25.90;18.20;;;2.90;99.90;;;;;;5015059;28;20097;-75
2021/12/10 07:13:13;;;;;;;31.08;18.15;;;2.90;99.90;;;;;;5032718;28;20057;-76
2021/12/10 07:15:42;;;;;;;28.13;18.10;;;2.80;99.90;;;;;;5032979;28;20052;-76
2021/12/10 07:18:08;;;;;;;23.27;17.23;;;2.80;99.90;;;;;;5015083;28;20054;-76
2021/12/10 07:20:34;;;;;;;20.25;16.25;;;2.80;99.90;;;;;;5015270;28;20072;-76
2021/12/10 07:23:00;;;;;;;21.63;15.73;;;2.80;99.90;;;;;;5032862;28;20041;-76
2021/12/10 07:25:27;;;;;;;23.27;16.23;;;2.90;99.90;;;;;;4998545;28;20045;-76
2021/12/10 07:27:53;;;;;;;24.70;15.55;;;2.80;99.90;;;;;;5032710;28;20050;-76
2021/12/10 07:30:22;;;;;;;22.60;16.47;;;2.80;99.90;;;;;;5032488;28;20045;-76
2021/12/10 07:32:49;;;;;;;22.80;15.73;;;2.70;99.90;;;;;;5032787;28;20098;-76
2021/12/10 07:35:15;;;;;;;22.75;15.98;;;2.70;99.90;;;;;;5034139;28;20049;-76
2021/12/10 07:37:41;;;;;;;24.38;16.55;;;2.70;99.90;;;;;;5036814;28;20128;-76
2021/12/10 07:40:11;;;;;;;25.23;14.50;;;2.70;99.90;;;;;;5036549;28;20404;-76
2021/12/10 07:42:36;;;;;;;20.95;15.25;;;2.70;99.90;;;;;;5036920;28;20057;-76
2021/12/10 07:45:04;;;;;;;23.13;15.30;;;2.70;99.90;;;;;;5036686;28;20045;-76
2021/12/10 07:47:34;;;;;;;22.67;14.93;;;2.70;99.90;;;;;;5018746;28;20053;-76
2021/12/10 07:50:00;;;;;;;21.65;14.25;;;2.70;99.90;;;;;;5019219;28;20053;-76
2021/12/10 07:52:28;;;;;;;22.77;14.10;;;2.70;99.90;;;;;;5036307;28;20061;-76
2021/12/10 07:54:54;;;;;;;25.08;14.40;;;2.70;99.90;;;;;;5036481;28;20276;-76
2021/12/10 07:57:22;;;;;;;21.65;13.38;;;2.60;99.90;;;;;;5036129;28;20569;-76
2021/12/10 07:59:49;;;;;;;18.45;13.35;;;2.60;99.90;;;;;;5036367;28;20080;-76
2021/12/10 08:02:16;;;;;;;25.58;14.27;;;2.60;99.90;;;;;;5036167;28;20559;-76
2021/12/10 08:04:42;;;;;;;19.83;14.20;;;2.60;99.90;;;;;;5018694;28;20049;-75
2021/12/10 08:07:10;;;;;;;19.33;12.90;;;2.60;99.90;;;;;;5035625;28;20517;-76
2021/12/10 08:09:36;;;;;;;16.88;13.00;;;2.60;99.90;;;;;;5036265;28;20056;-76
2021/12/10 08:12:02;;;;;;;19.43;14.13;;;2.60;99.90;;;;;;4998926;28;20054;-76
2021/12/10 08:14:28;;;;;;;18.23;13.25;;;2.60;99.90;;;;;;5016141;28;20867;-77
2021/12/10 08:16:53;;;;;;;19.87;13.60;;;2.60;99.90;;;;;;5016430;28;20057;-76
2021/12/10 08:19:19;;;;;;;18.07;12.50;;;2.60;99.90;;;;;;5016120;28;20108;-76
2021/12/10 08:21:45;;;;;;;19.10;13.57;;;2.60;99.90;;;;;;5016333;28;20050;-76
2021/12/10 08:24:11;;;;;;;20.37;14.93;;;2.70;99.90;;;;;;5015970;28;20041;-77
2021/12/10 08:26:40;;;;;;;23.85;13.38;;;2.60;99.90;;;;;;5016128;28;20073;-77
2021/12/10 08:29:06;;;;;;;17.48;12.50;;;2.60;99.90;;;;;;5016175;28;20080;-76
2021/12/10 08:31:33;;;;;;;19.02;12.90;;;2.60;99.90;;;;;;5015895;28;20508;-77
2021/12/10 08:33:59;;;;;;;16.38;10.98;;;2.60;99.90;;;;;;5015123;28;20101;-76
2021/12/10 08:36:25;;;;;;;17.42;13.70;;;2.70;99.90;;;;;;5015713;28;20184;-77
2021/12/10 08:38:52;;;;;;;19.88;15.40;;;2.70;99.90;;;;;;5016032;28;20053;-76
2021/12/10 08:41:25;;;;;;;17.23;12.38;;;2.60;99.90;;;;;;5014811;28;20050;-77
2021/12/10 08:43:54;;;;;;;20.08;11.40;;;2.60;99.90;;;;;;5016205;28;20046;-77
2021/12/10 08:46:20;;;;;;;16.42;11.10;;;2.60;99.90;;;;;;5014721;28;20046;-77
2021/12/10 08:48:48;;;;;;;19.17;11.88;;;2.60;99.90;;;;;;5015806;28;20094;-76
2021/12/10 08:51:29;;;;;;;17.67;11.15;;;2.70;99.90;;;;;;5015433;28;20065;-76
2021/12/10 08:53:55;;;;;;;15.57;9.85;;;2.70;99.90;;;;;;5015026;28;20463;-76
2021/12/10 08:56:21;;;;;;;15.93;10.37;;;2.70;99.90;;;;;;5015361;28;20129;-76
2021/12/10 08:58:47;;;;;;;14.93;11.50;;;2.70;99.90;;;;;;5015557;28;20299;-76
2021/12/10 09:01:20;;;;;;;16.07;10.33;;;2.70;99.90;;;;;;5015266;28;20483;-76
2021/12/10 09:03:50;;;;;;;15.02;11.18;;;2.70;99.90;;;;;;5015807;28;20299;-76
2021/12/10 09:06:18;;;;;;;17.90;10.32;;;2.70;99.90;;;;;;5014056;28;20049;-76
2021/12/10 09:08:43;;;;;;;17.30;10.00;;;2.70;99.90;;;;;;5015386;28;20089;-76
2021/12/10 09:11:11;;;;;;;14.03;10.03;;;2.70;99.90;;;;;;5021392;28;20093;-76
2021/12/10 09:13:37;;;;;;;16.63;9.70;;;2.70;99.90;;;;;;5034742;28;20060;-76
2021/12/10 09:16:09;;;;;;;14.23;9.93;;;2.80;99.90;;;;;;5035037;28;20394;-76
2021/12/10 09:18:39;;;;;;;16.83;8.98;;;2.80;99.90;;;;;;5034698;28;20556;-77
2021/12/10 09:21:07;;;;;;;14.35;8.50;;;2.90;99.90;;;;;;5034930;28;20131;-76
2021/12/10 09:23:33;;;;;;;14.95;9.23;;;2.90;99.90;;;;;;5034601;28;20049;-77
2021/12/10 09:26:04;;;;;;;14.38;9.82;;;2.90;99.90;;;;;;5034733;28;20089;-78
2021/12/10 09:28:30;;;;;;;13.02;9.38;;;2.90;99.90;;;;;;5034522;28;20085;-79
2021/12/10 09:31:00;;;;;;;14.47;8.47;;;3.00;99.90;;;;;;5016991;28;20512;-77
2021/12/10 09:33:26;;;;;;;13.75;8.45;;;3.00;99.90;;;;;;5034535;28;20132;-77
2021/12/10 09:35:52;;;;;;;16.53;9.10;;;3.00;99.90;;;;;;5034636;28;20084;-77
2021/12/10 09:38:20;;;;;;;14.23;8.37;;;3.10;99.90;;;;;;5016641;28;20346;-79
2021/12/10 09:40:49;;;;;;;12.63;8.38;;;3.10;99.90;;;;;;5034824;28;20067;-80
2021/12/10 09:43:16;;;;;;;15.00;8.48;;;3.20;99.90;;;;;;5034571;28;20045;-77
2021/12/10 09:45:43;;;;;;;12.88;7.47;;;3.10;99.90;;;;;;5034147;28;20057;-77
2021/12/10 09:48:12;;;;;;;14.45;7.38;;;3.20;99.90;;;;;;5016697;28;20046;-77
2021/12/10 09:51:01;;;;;;;14.43;8.18;;;3.20;99.90;;;;;;5033986;28;20303;-78
2021/12/10 09:53:29;;;;;;;18.27;8.10;;;3.30;99.90;;;;;;5034154;28;20099;-76
2021/12/10 09:55:55;;;;;;;15.45;7.97;;;3.30;99.90;;;;;;5034304;28;20049;-75
2021/12/10 09:58:21;;;;;;;14.23;7.80;;;3.30;99.90;;;;;;5032911;28;20145;-75
2021/12/10 10:01:00;;;;;;;12.13;7.20;;;3.30;99.90;;;;;;5034080;28;20057;-76
2021/12/10 10:03:30;;;;;;;17.92;8.00;;;3.40;99.90;;;;;;5033776;28;20049;-77
2021/12/10 10:05:57;;;;;;;13.65;7.78;;;3.50;99.90;;;;;;5016446;28;20140;-75
2021/12/10 10:08:25;;;;;;;12.98;7.55;;;3.60;99.90;;;;;;5033695;28;20056;-76
2021/12/10 10:10:55;;;;;;;19.30;12.75;;;3.50;99.90;;;;;;5000098;28;20093;-75
2021/12/10 10:13:28;;;;;;;12.43;7.60;;;3.50;99.90;;;;;;5034077;28;20088;-82
2021/12/10 10:15:57;;;;;;;11.07;6.80;;;3.50;99.90;;;;;;5033814;28;20136;-75
2021/12/10 10:18:24;;;;;;;13.43;7.30;;;3.50;99.90;;;;;;5033248;28;20049;-76
2021/12/10 10:20:54;;;;;;;11.60;6.22;;;3.60;99.90;;;;;;5033906;28;20061;-76
2021/12/10 10:23:21;;;;;;;13.75;6.90;;;3.60;99.90;;;;;;5033891;28;20136;-76
2021/12/10 10:25:51;;;;;;;12.25;6.30;;;3.60;99.90;;;;;;5033479;28;20052;-78
2021/12/10 10:28:17;;;;;;;14.90;6.95;;;3.70;99.90;;;;;;5034053;28;20056;-77
2021/12/10 10:31:01;;;;;;;11.30;6.40;;;3.70;99.90;;;;;;5033368;28;20092;-77
2021/12/10 10:33:34;;;;;;;13.52;6.47;;;3.80;99.90;;;;;;5033300;28;20052;-80
2021/12/10 10:36:06;;;;;;;14.02;5.97;;;3.70;99.90;;;;;;5033616;28;20049;-84
2021/12/10 10:38:33;;;;;;;10.60;6.32;;;3.80;99.90;;;;;;5033234;28;20057;-80
2021/12/10 10:41:04;;;;;;;12.70;5.95;;;3.80;99.90;;;;;;5016027;28;20152;-79
2021/12/10 10:43:32;;;;;;;13.05;6.07;;;3.90;99.90;;;;;;5015821;28;20060;-81
2021/12/10 10:45:59;;;;;;;11.57;7.10;;;3.90;99.90;;;;;;5033713;28;20209;-78
2021/12/10 10:48:26;;;;;;;11.82;6.22;;;3.90;99.90;;;;;;5015752;28;20393;-84
2021/12/10 10:50:55;;;;;;;11.60;6.05;;;4.00;99.90;;;;;;5033384;28;20049;-79
2021/12/10 10:53:24;;;;;;;9.57;5.68;;;4.00;99.90;;;;;;5033434;28;20068;-80
2021/12/10 10:55:55;;;;;;;12.18;5.20;;;4.00;99.90;;;;;;5015598;28;20057;-78
2021/12/10 10:58:23;;;;;;;16.83;6.40;;;;;;;;;;5033575;28;20470;-79
2021/12/10 11:01:07;;;;;;;10.90;7.82;;;4.10;99.90;;;;;;5032818;28;20132;-80
2021/12/10 11:03:43;;;;;;;11.45;5.95;;;4.10;99.90;;;;;;5032826;28;20050;-83
2021/12/10 11:06:11;;;;;;;;;;;4.10;99.90;;;;;;5033947;28;20103;-76
2021/12/10 11:08:46;;;;;;;12.68;5.88;;;4.10;99.90;;;;;;5015325;28;19927;-82
2021/12/10 11:11:12;;;;;;;;;;;4.10;99.90;;;;;;5032962;28;20049;-81
2021/12/10 11:13:38;;;;;;;;;;;4.20;99.90;;;;;;5033011;28;19928;-84
2021/12/10 11:16:05;;;;;;;11.15;4.90;;;4.20;99.90;;;;;;5015217;28;19925;-80
2021/12/10 11:18:54;;;;;;;9.73;4.60;;;4.20;99.90;;;;;;5032586;28;20045;-84
2021/12/10 11:21:51;;;;;;;9.93;4.93;;;4.30;99.90;;;;;;5015580;28;20052;-77
2021/12/10 11:24:25;;;;;;;12.18;5.35;;;4.30;99.90;;;;;;5015362;28;20049;-84
2021/12/10 11:27:03;;;;;;;11.40;4.72;;;4.30;99.90;;;;;;5015116;28;20477;-83
2021/12/10 11:29:48;;;;;;;10.05;5.18;;;4.30;99.90;;;;;;5032821;28;20046;-82
2021/12/10 11:32:16;;;;;;;11.43;5.20;;;4.30;99.90;;;;;;5033174;28;20099;-81
2021/12/10 11:34:47;;;;;;;11.02;4.70;;;4.30;99.90;;;;;;5032614;28;20107;-83
2021/12/10 11:37:14;;;;;;;10.63;4.88;;;4.30;99.90;;;;;;5032980;28;20042;-81
2021/12/10 11:39:50;;;;;;;15.32;4.88;;;4.30;99.90;;;;;;5032435;28;20068;-80
2021/12/10 11:42:46;;;;;;;7.65;3.90;;;4.30;99.90;;;;;;5032969;28;20042;-83
2021/12/10 11:45:40;;;;;;;12.10;4.80;;;4.30;99.90;;;;;;4999325;28;20049;-83
2021/12/10 11:48:11;;;;;;;10.68;4.45;;;4.30;99.90;;;;;;5032911;28;20049;-81
2021/12/10 11:50:41;;;;;;;10.50;4.93;;;4.30;99.90;;;;;;5032470;28;20469;-80
2021/12/10 11:53:16;;;;;;;9.00;4.55;;;4.30;99.90;;;;;;5032994;28;20473;-78
2021/12/10 11:56:07;;;;;;;98.03;54.22;;;4.30;99.90;;;;;;5015003;28;20489;-79
2021/12/10 11:58:33;;;;;;;11.95;5.32;;;4.40;99.90;;;;;;5015114;28;20060;-80
2021/12/10 12:00:59;;;;;;;10.18;4.25;;;4.40;99.90;;;;;;5032562;28;20042;-76
2021/12/10 12:03:35;;;;;;;8.93;4.40;;;4.40;99.90;;;;;;5032590;28;20041;-76
2021/12/10 12:06:01;;;;;;;12.63;4.65;;;4.40;99.90;;;;;;5032452;28;20045;-76
2021/12/10 12:08:28;;;;;;;9.27;4.00;;;4.40;99.90;;;;;;5032542;28;20091;-77
2021/12/10 12:10:59;;;;;;;11.63;5.78;;;4.40;99.90;;;;;;5032150;28;20429;-76
2021/12/10 12:15:57;;;;;;;11.57;4.72;;;4.50;99.90;;;;;;5032163;28;20445;-76
2021/12/10 12:18:33;;;;;;;10.40;4.97;;;4.50;99.90;;;;;;5032490;28;20048;-76
2021/12/10 12:27:06;;;;;;;11.02;4.70;;;4.50;99.90;;;;;;5035633;28;20057;-74
2021/12/10 12:29:42;;;;;;;9.10;5.13;;;4.50;99.90;;;;;;5036054;28;20045;-78
2021/12/10 12:32:10;;;;;;;15.20;6.25;;;4.50;99.90;;;;;;5036177;28;20403;-74
2021/12/10 12:34:36;;;;;;;9.90;4.93;;;4.50;99.90;;;;;;5035452;28;20041;-77
2021/12/10 12:37:08;;;;;;;7.60;4.67;;;4.50;99.90;;;;;;5035858;28;20102;-81
2021/12/10 12:39:42;;;;;;;12.35;5.57;;;4.50;99.90;;;;;;5035897;28;20061;-76
2021/12/10 12:42:23;;;;;;;9.98;4.57;;;4.50;99.90;;;;;;5018169;28;20175;-75
2021/12/10 12:44:52;;;;;;;8.27;4.28;;;4.50;99.90;;;;;;5017613;28;20054;-76
2021/12/10 12:47:21;;;;;;;9.60;4.22;;;4.50;99.90;;;;;;5035404;28;20041;-77
2021/12/10 12:49:46;;;;;;;9.23;4.47;;;4.50;99.90;;;;;;5035210;28;20170;-75
2021/12/10 12:52:13;;;;;;;12.07;4.63;;;4.50;99.90;;;;;;5035657;28;20106;-76
2021/12/10 12:55:02;;;;;;;7.68;4.50;;;4.60;99.90;;;;;;5017556;28;20056;-77
2021/12/10 12:57:38;;;;;;;12.65;4.68;;;4.50;99.90;;;;;;5004303;28;20054;-78
2021/12/10 13:00:10;;;;;;;10.15;4.40;;;4.60;99.90;;;;;;5035480;28;20077;-76
2021/12/10 13:02:36;;;;;;;8.32;4.28;;;4.60;99.90;;;;;;5035301;28;20063;-78
2021/12/10 13:05:05;;;;;;;8.70;4.20;;;4.50;99.90;;;;;;5034908;28;20541;-77
2021/12/10 13:07:31;;;;;;;9.68;4.43;;;4.50;99.90;;;;;;5035093;28;20052;-77
2021/12/10 13:10:01;;;;;;;8.85;4.35;;;4.50;99.90;;;;;;5017120;28;20050;-78
2021/12/10 13:12:55;;;;;;;11.73;4.47;;;4.50;99.90;;;;;;5017563;28;20068;-76